Albion, Nebraska
Current Conditions -  °F | °C
As of 12:35 AM on Wednesday 28 Jan 2015 (Local Time) from KBVN Reporting Station
Clear Clear  
Wind Chill: 30°   Ceiling: Unl
Heat Index: 35°   Visibility: 10mi
Dew Point: 29°   Wind: 6mph
Humidity: 79%   Direction: 150°SSE
Pressure: 29.9"   Gusts: NA
Location:  41.69°N, 98°W
Report Text: KBVN 280635Z AUTO 15005KT 10SM CLR 02/M02 A2990 RMK AO2 T00161017
Loading
Personal Weather Stations






























Interactive Weather Map New forecast layout! Learn more

10-Day Weather Forecast

Advertisements
Track Severe Weather on mobile